Tropical Cyclones
[Index]
Main Index Home Page Stock Weather Photos Extreme Storms Discussion Storm News and Storm Chasing Reports Tropical Cyclones / Hurricanes / Typhoons Weather Data and Links Wild Fires / Bushfires Weather Observation Techniques Weather Picture Catalogue Tornado Pictures and Reports Stock Video Footage and DVDs for sale
Season 2014-2015 Tropical Cyclone BANSI Track Map
Season 2014-2015 Summaries (Operational Data): [AU] [SIO] [SPAC] [SH]
<<- Previous TC | 2014-2015 Season | Next TC ->>

click for intensity scale information  Lat/long Grid: Show Hide

 Date Labels: Show Hide

Operational Tropical Cyclone Data : JTWC Advisories

Name: BANSI
Number: 1505

07 Jan 2015 18:00 UTC to 19 Jan 2015 18:00 UTC

    date/time    lat    long     hPa   cat  kts
2015-01-07 18   17.9    50.3    1010         15          
2015-01-08 00   17.8    51.0    1010         15          
2015-01-08 06   17.8    51.6    1010         15          
2015-01-08 12   18.2    52.5    1010         15          
2015-01-08 18   18.4    53.0    1010         15          
2015-01-09 00   18.6    53.1    1007         20          
2015-01-09 06   19.0    53.1    1007         20          
2015-01-09 12   18.7    52.8    1006         20          
2015-01-09 18   18.1    52.6    1006         20          
2015-01-10 00   17.5    52.8    1007         20          
2015-01-10 06   17.0    53.1    1007         20          
2015-01-10 12   16.7    53.3    1004         25          
2015-01-10 18   16.3    53.8    1004         25          
2015-01-11 00   16.2    54.4    1000         30          
2015-01-11 06   16.3    54.7     996    1    35          
2015-01-11 12   16.7    54.9     985    2    50          
2015-01-11 18   17.1    55.0     974    3    65          
2015-01-12 00   17.2    55.2     967    3    75          
2015-01-12 06   17.2    55.9     948    4   100          
2015-01-12 12   17.5    56.6     937    5   115          
2015-01-12 18   17.6    56.8     926    5   130          
2015-01-13 00   17.6    57.3     918    5   140          
2015-01-13 06   17.3    57.6     926    5   130          
2015-01-13 12   17.2    57.9     926    5   130          
2015-01-13 18   17.3    58.1     937    5   115          
2015-01-14 00   17.4    58.2     956    4   105          
2015-01-14 06   17.3    58.5     956    4    90          
2015-01-14 12   17.3    58.9     956    4    90          
2015-01-14 18   17.4    59.6     956    4    90          
2015-01-15 00   17.7    60.2     944    4   105          
2015-01-15 06   17.9    60.8     933    5   120          
2015-01-15 12   18.0    61.7     933    5   120          
2015-01-15 18   18.3    62.9     937    5   115          
2015-01-16 00   19.0    64.1     937    5   115          
2015-01-16 06   20.0    65.3     926    5   130          
2015-01-16 12   21.5    66.2     929    5   125          
2015-01-16 18   22.6    67.1     941    5   110          
2015-01-17 00   23.3    67.8     944    4   105          
2015-01-17 06   23.8    68.5     952    4    95          
2015-01-17 12   24.4    69.9     952    4    95          
2015-01-17 18   24.8    72.1     967    3    75          
2015-01-18 00   25.0    74.2     967    3    75          
2015-01-18 06   25.4    75.9     974    3    65          
2015-01-18 12   25.8    78.7     982    2    55          
2015-01-18 18   27.6    82.0            1    40          
2015-01-19 00   30.7    86.7                             
2015-01-19 06   32.8    90.2                             
2015-01-19 12   34.8    93.5                             
2015-01-19 18   40.5   101.5                             
Winds are 10-min average.

Tropical cyclone tracks developed by Michael Bath using operational warnings and advisories and Google Maps.


[Australian Severe Weather index] [Copyright Notice] [Email Contacts] [Search This Site] [Privacy Policy]
Document: tropical_cyclone_bansi.htm Updated: 2 May 2017